sensor_id;sensor_type;location;lat;lon;timestamp;P1;durP1;ratioP1;P2;durP2;ratioP2
55220;SDS011;41089;51.448;6.604;2023-06-24T00:05:46;9.98;;;8.98;;
55220;SDS011;41089;51.448;6.604;2023-06-24T00:11:49;10.80;;;9.80;;
55220;SDS011;41089;51.448;6.604;2023-06-24T00:17:49;10.48;;;9.38;;
55220;SDS011;41089;51.448;6.604;2023-06-24T00:23:50;11.82;;;8.55;;
55220;SDS011;41089;51.448;6.604;2023-06-24T00:29:51;11.85;;;9.40;;
55220;SDS011;41089;51.448;6.604;2023-06-24T00:35:53;11.37;;;9.60;;
55220;SDS011;41089;51.448;6.604;2023-06-24T00:41:54;12.30;;;10.77;;
55220;SDS011;41089;51.448;6.604;2023-06-24T00:47:55;11.13;;;10.13;;
55220;SDS011;41089;51.448;6.604;2023-06-24T00:53:56;11.32;;;10.13;;
55220;SDS011;41089;51.448;6.604;2023-06-24T00:59:57;12.35;;;11.15;;
55220;SDS011;41089;51.448;6.604;2023-06-24T01:05:59;12.35;;;10.43;;
55220;SDS011;41089;51.448;6.604;2023-06-24T01:12:00;12.53;;;10.33;;
55220;SDS011;41089;51.448;6.604;2023-06-24T01:30:42;14.40;;;12.85;;
55220;SDS011;41089;51.448;6.604;2023-06-24T01:43:18;13.18;;;11.18;;
55220;SDS011;41089;51.448;6.604;2023-06-24T01:49:21;10.93;;;9.80;;
55220;SDS011;41089;51.448;6.604;2023-06-24T01:55:22;11.90;;;10.68;;
55220;SDS011;41089;51.448;6.604;2023-06-24T02:01:23;11.27;;;10.00;;
55220;SDS011;41089;51.448;6.604;2023-06-24T02:07:25;16.23;;;12.13;;
55220;SDS011;41089;51.448;6.604;2023-06-24T02:13:25;14.00;;;11.32;;
55220;SDS011;41089;51.448;6.604;2023-06-24T02:19:27;13.35;;;12.05;;
55220;SDS011;41089;51.448;6.604;2023-06-24T02:25:29;14.27;;;11.73;;
55220;SDS011;41089;51.448;6.604;2023-06-24T02:31:30;17.27;;;11.80;;
55220;SDS011;41089;51.448;6.604;2023-06-24T02:37:30;14.23;;;12.60;;
55220;SDS011;41089;51.448;6.604;2023-06-24T02:43:32;13.20;;;11.80;;
55220;SDS011;41089;51.448;6.604;2023-06-24T02:49:32;13.82;;;11.93;;
55220;SDS011;41089;51.448;6.604;2023-06-24T02:55:33;16.55;;;11.00;;
55220;SDS011;41089;51.448;6.604;2023-06-24T03:01:35;14.63;;;11.30;;
55220;SDS011;41089;51.448;6.604;2023-06-24T03:07:38;13.23;;;11.82;;
55220;SDS011;41089;51.448;6.604;2023-06-24T03:13:39;14.18;;;10.88;;
55220;SDS011;41089;51.448;6.604;2023-06-24T03:19:39;13.35;;;10.57;;
55220;SDS011;41089;51.448;6.604;2023-06-24T03:25:40;14.27;;;11.23;;
55220;SDS011;41089;51.448;6.604;2023-06-24T03:31:40;16.98;;;10.95;;
55220;SDS011;41089;51.448;6.604;2023-06-24T03:37:44;15.18;;;12.27;;
55220;SDS011;41089;51.448;6.604;2023-06-24T03:43:44;19.23;;;12.70;;
55220;SDS011;41089;51.448;6.604;2023-06-24T03:49:45;14.73;;;12.88;;
55220;SDS011;41089;51.448;6.604;2023-06-24T03:55:45;19.00;;;12.77;;
55220;SDS011;41089;51.448;6.604;2023-06-24T04:01:45;12.20;;;10.70;;
55220;SDS011;41089;51.448;6.604;2023-06-24T04:07:46;14.63;;;12.17;;
55220;SDS011;41089;51.448;6.604;2023-06-24T04:13:46;17.20;;;13.23;;
55220;SDS011;41089;51.448;6.604;2023-06-24T04:19:48;17.13;;;12.27;;
55220;SDS011;41089;51.448;6.604;2023-06-24T04:25:49;16.63;;;12.90;;
55220;SDS011;41089;51.448;6.604;2023-06-24T04:31:49;18.25;;;12.85;;
55220;SDS011;41089;51.448;6.604;2023-06-24T04:37:50;17.95;;;11.65;;
55220;SDS011;41089;51.448;6.604;2023-06-24T04:43:50;14.68;;;12.63;;
55220;SDS011;41089;51.448;6.604;2023-06-24T04:49:50;15.00;;;11.20;;
55220;SDS011;41089;51.448;6.604;2023-06-24T04:55:51;17.50;;;13.13;;
55220;SDS011;41089;51.448;6.604;2023-06-24T05:01:51;13.83;;;11.97;;
55220;SDS011;41089;51.448;6.604;2023-06-24T05:07:52;16.43;;;12.63;;
55220;SDS011;41089;51.448;6.604;2023-06-24T05:13:52;15.77;;;11.83;;
55220;SDS011;41089;51.448;6.604;2023-06-24T05:19:53;15.63;;;12.57;;
55220;SDS011;41089;51.448;6.604;2023-06-24T05:25:53;18.33;;;13.23;;
55220;SDS011;41089;51.448;6.604;2023-06-24T05:31:54;16.17;;;12.40;;
55220;SDS011;41089;51.448;6.604;2023-06-24T05:37:54;17.97;;;12.07;;
55220;SDS011;41089;51.448;6.604;2023-06-24T05:44:04;15.55;;;13.27;;
55220;SDS011;41089;51.448;6.604;2023-06-24T05:50:06;14.35;;;12.95;;
55220;SDS011;41089;51.448;6.604;2023-06-24T05:56:07;20.55;;;13.95;;
55220;SDS011;41089;51.448;6.604;2023-06-24T06:02:07;22.65;;;15.55;;
55220;SDS011;41089;51.448;6.604;2023-06-24T06:08:07;23.65;;;14.85;;
55220;SDS011;41089;51.448;6.604;2023-06-24T06:14:08;18.98;;;14.95;;
55220;SDS011;41089;51.448;6.604;2023-06-24T06:20:08;19.23;;;17.33;;
55220;SDS011;41089;51.448;6.604;2023-06-24T06:26:09;19.27;;;17.30;;
55220;SDS011;41089;51.448;6.604;2023-06-24T06:32:09;20.30;;;18.30;;
55220;SDS011;41089;51.448;6.604;2023-06-24T06:38:10;22.07;;;17.87;;
55220;SDS011;41089;51.448;6.604;2023-06-24T06:44:10;21.97;;;17.47;;
55220;SDS011;41089;51.448;6.604;2023-06-24T06:50:11;19.35;;;16.98;;
55220;SDS011;41089;51.448;6.604;2023-06-24T06:56:32;18.90;;;16.90;;
55220;SDS011;41089;51.448;6.604;2023-06-24T07:02:32;15.75;;;14.25;;
55220;SDS011;41089;51.448;6.604;2023-06-24T07:08:33;12.50;;;11.40;;
55220;SDS011;41089;51.448;6.604;2023-06-24T07:14:34;16.60;;;10.18;;
55220;SDS011;41089;51.448;6.604;2023-06-24T07:20:34;13.20;;;10.90;;
55220;SDS011;41089;51.448;6.604;2023-06-24T07:26:34;10.27;;;9.33;;
55220;SDS011;41089;51.448;6.604;2023-06-24T07:32:35;8.43;;;7.53;;
55220;SDS011;41089;51.448;6.604;2023-06-24T07:38:36;8.68;;;7.53;;
55220;SDS011;41089;51.448;6.604;2023-06-24T07:44:37;7.93;;;7.10;;
55220;SDS011;41089;51.448;6.604;2023-06-24T07:50:39;8.68;;;6.43;;
55220;SDS011;41089;51.448;6.604;2023-06-24T07:56:39;11.38;;;8.38;;
55220;SDS011;41089;51.448;6.604;2023-06-24T08:02:40;10.00;;;7.57;;
55220;SDS011;41089;51.448;6.604;2023-06-24T08:08:41;8.27;;;6.35;;
55220;SDS011;41089;51.448;6.604;2023-06-24T08:14:41;6.03;;;5.10;;
55220;SDS011;41089;51.448;6.604;2023-06-24T08:20:42;10.32;;;5.80;;
55220;SDS011;41089;51.448;6.604;2023-06-24T08:26:42;11.27;;;6.23;;
55220;SDS011;41089;51.448;6.604;2023-06-24T08:32:43;7.93;;;6.47;;
55220;SDS011;41089;51.448;6.604;2023-06-24T08:38:45;8.27;;;7.20;;
55220;SDS011;41089;51.448;6.604;2023-06-24T08:44:46;9.48;;;8.13;;
55220;SDS011;41089;51.448;6.604;2023-06-24T08:50:49;10.52;;;7.53;;
55220;SDS011;41089;51.448;6.604;2023-06-24T08:56:51;12.88;;;9.05;;
55220;SDS011;41089;51.448;6.604;2023-06-24T09:02:52;9.75;;;7.60;;
55220;SDS011;41089;51.448;6.604;2023-06-24T09:08:53;11.30;;;8.32;;
55220;SDS011;41089;51.448;6.604;2023-06-24T09:14:54;10.75;;;9.15;;
55220;SDS011;41089;51.448;6.604;2023-06-24T09:20:55;8.73;;;7.70;;
55220;SDS011;41089;51.448;6.604;2023-06-24T09:26:55;9.73;;;8.00;;
55220;SDS011;41089;51.448;6.604;2023-06-24T09:32:56;7.57;;;6.57;;
55220;SDS011;41089;51.448;6.604;2023-06-24T09:38:59;8.02;;;5.50;;
55220;SDS011;41089;51.448;6.604;2023-06-24T09:51:06;7.77;;;5.83;;
55220;SDS011;41089;51.448;6.604;2023-06-24T09:57:06;7.97;;;5.95;;
55220;SDS011;41089;51.448;6.604;2023-06-24T10:03:09;7.13;;;5.45;;
55220;SDS011;41089;51.448;6.604;2023-06-24T10:09:10;6.38;;;5.28;;
55220;SDS011;41089;51.448;6.604;2023-06-24T10:15:13;6.82;;;5.28;;
55220;SDS011;41089;51.448;6.604;2023-06-24T10:21:15;6.22;;;4.97;;
55220;SDS011;41089;51.448;6.604;2023-06-24T10:27:17;6.45;;;5.75;;
55220;SDS011;41089;51.448;6.604;2023-06-24T10:33:18;6.72;;;5.57;;
55220;SDS011;41089;51.448;6.604;2023-06-24T10:39:34;6.65;;;5.20;;
55220;SDS011;41089;51.448;6.604;2023-06-24T10:45:48;5.68;;;5.05;;
55220;SDS011;41089;51.448;6.604;2023-06-24T10:51:51;6.93;;;5.45;;
55220;SDS011;41089;51.448;6.604;2023-06-24T10:57:52;5.30;;;4.20;;
55220;SDS011;41089;51.448;6.604;2023-06-24T11:03:52;4.80;;;4.33;;
55220;SDS011;41089;51.448;6.604;2023-06-24T11:09:56;7.20;;;4.43;;
55220;SDS011;41089;51.448;6.604;2023-06-24T11:15:59;7.15;;;4.40;;
55220;SDS011;41089;51.448;6.604;2023-06-24T11:22:00;4.45;;;4.05;;
55220;SDS011;41089;51.448;6.604;2023-06-24T11:28:02;4.20;;;3.65;;
55220;SDS011;41089;51.448;6.604;2023-06-24T11:34:02;5.07;;;3.88;;
55220;SDS011;41089;51.448;6.604;2023-06-24T11:40:06;5.70;;;4.03;;
55220;SDS011;41089;51.448;6.604;2023-06-24T11:46:08;4.80;;;3.78;;
55220;SDS011;41089;51.448;6.604;2023-06-24T11:52:08;4.30;;;3.47;;
55220;SDS011;41089;51.448;6.604;2023-06-24T11:58:09;4.13;;;3.75;;
55220;SDS011;41089;51.448;6.604;2023-06-24T12:04:12;4.13;;;3.80;;
55220;SDS011;41089;51.448;6.604;2023-06-24T12:10:13;3.17;;;2.88;;
55220;SDS011;41089;51.448;6.604;2023-06-24T12:16:14;3.50;;;3.03;;
55220;SDS011;41089;51.448;6.604;2023-06-24T12:22:14;7.13;;;3.10;;
55220;SDS011;41089;51.448;6.604;2023-06-24T12:28:14;2.72;;;2.53;;
55220;SDS011;41089;51.448;6.604;2023-06-24T12:34:15;2.80;;;2.60;;
55220;SDS011;41089;51.448;6.604;2023-06-24T12:40:15;2.80;;;2.60;;
55220;SDS011;41089;51.448;6.604;2023-06-24T12:46:15;2.95;;;2.65;;
55220;SDS011;41089;51.448;6.604;2023-06-24T12:52:16;3.05;;;2.75;;
55220;SDS011;41089;51.448;6.604;2023-06-24T12:58:21;3.07;;;2.70;;
55220;SDS011;41089;51.448;6.604;2023-06-24T13:04:22;3.20;;;2.90;;
55220;SDS011;41089;51.448;6.604;2023-06-24T13:10:24;3.05;;;2.80;;
55220;SDS011;41089;51.448;6.604;2023-06-24T13:16:24;5.27;;;2.90;;
55220;SDS011;41089;51.448;6.604;2023-06-24T13:22:25;2.73;;;2.53;;
55220;SDS011;41089;51.448;6.604;2023-06-24T13:28:25;9.13;;;8.23;;
55220;SDS011;41089;51.448;6.604;2023-06-24T13:34:26;3.23;;;2.93;;
55220;SDS011;41089;51.448;6.604;2023-06-24T13:40:26;3.17;;;2.92;;
55220;SDS011;41089;51.448;6.604;2023-06-24T13:46:27;3.03;;;2.47;;
55220;SDS011;41089;51.448;6.604;2023-06-24T13:52:28;3.00;;;2.78;;
55220;SDS011;41089;51.448;6.604;2023-06-24T13:58:29;4.17;;;2.73;;
55220;SDS011;41089;51.448;6.604;2023-06-24T14:04:29;3.35;;;2.80;;
55220;SDS011;41089;51.448;6.604;2023-06-24T14:10:30;3.08;;;2.42;;
55220;SDS011;41089;51.448;6.604;2023-06-24T14:16:30;3.63;;;3.27;;
55220;SDS011;41089;51.448;6.604;2023-06-24T14:22:31;3.63;;;2.72;;
55220;SDS011;41089;51.448;6.604;2023-06-24T14:28:31;3.00;;;2.72;;
55220;SDS011;41089;51.448;6.604;2023-06-24T14:34:32;4.53;;;2.58;;
55220;SDS011;41089;51.448;6.604;2023-06-24T14:40:32;3.25;;;3.00;;
55220;SDS011;41089;51.448;6.604;2023-06-24T14:46:33;2.63;;;2.42;;
55220;SDS011;41089;51.448;6.604;2023-06-24T14:52:34;3.00;;;2.63;;
55220;SDS011;41089;51.448;6.604;2023-06-24T14:58:34;3.80;;;2.30;;
55220;SDS011;41089;51.448;6.604;2023-06-24T15:04:38;2.67;;;2.47;;
55220;SDS011;41089;51.448;6.604;2023-06-24T15:10:38;2.97;;;2.55;;
55220;SDS011;41089;51.448;6.604;2023-06-24T15:16:39;2.67;;;2.47;;
55220;SDS011;41089;51.448;6.604;2023-06-24T15:22:40;2.80;;;2.60;;
55220;SDS011;41089;51.448;6.604;2023-06-24T15:28:40;2.95;;;2.75;;
55220;SDS011;41089;51.448;6.604;2023-06-24T15:34:41;3.03;;;2.73;;
55220;SDS011;41089;51.448;6.604;2023-06-24T15:40:41;4.30;;;2.93;;
55220;SDS011;41089;51.448;6.604;2023-06-24T15:46:43;4.18;;;2.58;;
55220;SDS011;41089;51.448;6.604;2023-06-24T15:52:47;3.30;;;3.00;;
55220;SDS011;41089;51.448;6.604;2023-06-24T15:58:47;5.57;;;2.70;;
55220;SDS011;41089;51.448;6.604;2023-06-24T16:04:48;2.80;;;2.60;;
55220;SDS011;41089;51.448;6.604;2023-06-24T16:10:48;3.63;;;3.00;;
55220;SDS011;41089;51.448;6.604;2023-06-24T16:16:49;3.72;;;3.38;;
55220;SDS011;41089;51.448;6.604;2023-06-24T16:22:51;3.65;;;3.28;;
55220;SDS011;41089;51.448;6.604;2023-06-24T16:28:52;3.17;;;2.87;;
55220;SDS011;41089;51.448;6.604;2023-06-24T16:34:54;3.17;;;2.88;;
55220;SDS011;41089;51.448;6.604;2023-06-24T16:40:55;3.97;;;2.58;;
55220;SDS011;41089;51.448;6.604;2023-06-24T16:46:55;3.85;;;2.63;;
55220;SDS011;41089;51.448;6.604;2023-06-24T16:52:56;4.38;;;2.90;;
55220;SDS011;41089;51.448;6.604;2023-06-24T16:58:56;3.20;;;2.70;;
55220;SDS011;41089;51.448;6.604;2023-06-24T17:04:57;3.23;;;2.70;;
55220;SDS011;41089;51.448;6.604;2023-06-24T17:10:57;3.45;;;3.15;;
55220;SDS011;41089;51.448;6.604;2023-06-24T17:16:57;3.00;;;2.80;;
55220;SDS011;41089;51.448;6.604;2023-06-24T17:22:58;3.85;;;2.88;;
55220;SDS011;41089;51.448;6.604;2023-06-24T17:28:59;4.13;;;3.10;;
55220;SDS011;41089;51.448;6.604;2023-06-24T17:34:59;3.17;;;2.72;;
55220;SDS011;41089;51.448;6.604;2023-06-24T17:41:00;6.25;;;3.15;;
55220;SDS011;41089;51.448;6.604;2023-06-24T17:47:00;3.53;;;3.07;;
55220;SDS011;41089;51.448;6.604;2023-06-24T17:53:01;3.55;;;3.13;;
55220;SDS011;41089;51.448;6.604;2023-06-24T17:59:01;3.22;;;2.92;;
55220;SDS011;41089;51.448;6.604;2023-06-24T18:05:02;5.28;;;2.88;;
55220;SDS011;41089;51.448;6.604;2023-06-24T18:11:03;3.63;;;3.33;;
55220;SDS011;41089;51.448;6.604;2023-06-24T18:17:03;4.33;;;3.60;;
55220;SDS011;41089;51.448;6.604;2023-06-24T18:23:03;4.57;;;3.28;;
55220;SDS011;41089;51.448;6.604;2023-06-24T18:29:04;3.47;;;2.97;;
55220;SDS011;41089;51.448;6.604;2023-06-24T18:35:05;3.50;;;3.20;;
55220;SDS011;41089;51.448;6.604;2023-06-24T18:41:06;4.90;;;3.55;;
55220;SDS011;41089;51.448;6.604;2023-06-24T18:47:06;3.40;;;3.10;;
55220;SDS011;41089;51.448;6.604;2023-06-24T18:53:06;4.00;;;3.60;;
55220;SDS011;41089;51.448;6.604;2023-06-24T18:59:10;4.40;;;4.00;;
55220;SDS011;41089;51.448;6.604;2023-06-24T19:05:11;9.17;;;8.20;;
55220;SDS011;41089;51.448;6.604;2023-06-24T19:11:11;4.57;;;3.63;;
55220;SDS011;41089;51.448;6.604;2023-06-24T19:17:12;4.13;;;3.57;;
55220;SDS011;41089;51.448;6.604;2023-06-24T19:23:12;4.75;;;3.45;;
55220;SDS011;41089;51.448;6.604;2023-06-24T19:29:12;4.50;;;4.00;;
55220;SDS011;41089;51.448;6.604;2023-06-24T19:35:13;6.13;;;5.47;;
55220;SDS011;41089;51.448;6.604;2023-06-24T19:41:15;8.00;;;6.32;;
55220;SDS011;41089;51.448;6.604;2023-06-24T19:47:16;9.63;;;7.63;;
55220;SDS011;41089;51.448;6.604;2023-06-24T19:53:17;11.77;;;8.55;;
55220;SDS011;41089;51.448;6.604;2023-06-24T19:59:19;21.27;;;16.45;;
55220;SDS011;41089;51.448;6.604;2023-06-24T20:05:20;29.92;;;20.80;;
55220;SDS011;41089;51.448;6.604;2023-06-24T20:11:21;17.00;;;11.98;;
55220;SDS011;41089;51.448;6.604;2023-06-24T20:17:21;22.60;;;16.05;;
55220;SDS011;41089;51.448;6.604;2023-06-24T20:23:21;15.40;;;11.15;;
55220;SDS011;41089;51.448;6.604;2023-06-24T20:29:24;12.03;;;7.20;;
55220;SDS011;41089;51.448;6.604;2023-06-24T20:35:24;11.38;;;9.20;;
55220;SDS011;41089;51.448;6.604;2023-06-24T20:41:25;7.55;;;6.10;;
55220;SDS011;41089;51.448;6.604;2023-06-24T20:47:30;11.05;;;7.63;;
55220;SDS011;41089;51.448;6.604;2023-06-24T20:53:33;9.43;;;8.23;;
55220;SDS011;41089;51.448;6.604;2023-06-24T20:59:35;6.88;;;5.00;;
55220;SDS011;41089;51.448;6.604;2023-06-24T21:05:36;5.03;;;4.53;;
55220;SDS011;41089;51.448;6.604;2023-06-24T21:11:37;5.63;;;4.90;;
55220;SDS011;41089;51.448;6.604;2023-06-24T21:17:37;5.97;;;5.13;;
55220;SDS011;41089;51.448;6.604;2023-06-24T21:23:39;7.28;;;5.35;;
55220;SDS011;41089;51.448;6.604;2023-06-24T21:29:39;8.68;;;5.65;;
55220;SDS011;41089;51.448;6.604;2023-06-24T21:35:40;6.10;;;4.50;;
55220;SDS011;41089;51.448;6.604;2023-06-24T21:41:40;5.33;;;4.83;;
55220;SDS011;41089;51.448;6.604;2023-06-24T21:47:43;8.32;;;5.18;;
55220;SDS011;41089;51.448;6.604;2023-06-24T21:53:43;7.97;;;5.20;;
55220;SDS011;41089;51.448;6.604;2023-06-24T21:59:43;5.70;;;5.20;;
55220;SDS011;41089;51.448;6.604;2023-06-24T22:05:45;8.73;;;4.90;;
55220;SDS011;41089;51.448;6.604;2023-06-24T22:11:45;4.93;;;4.43;;
55220;SDS011;41089;51.448;6.604;2023-06-24T22:17:46;6.13;;;5.05;;
55220;SDS011;41089;51.448;6.604;2023-06-24T22:23:46;5.90;;;5.15;;
55220;SDS011;41089;51.448;6.604;2023-06-24T22:29:46;7.43;;;5.10;;
55220;SDS011;41089;51.448;6.604;2023-06-24T22:35:53;11.40;;;5.18;;
55220;SDS011;41089;51.448;6.604;2023-06-24T22:41:54;6.80;;;5.85;;
55220;SDS011;41089;51.448;6.604;2023-06-24T22:47:54;7.57;;;5.73;;
55220;SDS011;41089;51.448;6.604;2023-06-24T22:53:55;7.70;;;5.67;;
55220;SDS011;41089;51.448;6.604;2023-06-24T22:59:55;7.93;;;5.73;;
55220;SDS011;41089;51.448;6.604;2023-06-24T23:05:55;6.57;;;5.37;;
55220;SDS011;41089;51.448;6.604;2023-06-24T23:11:57;6.65;;;5.28;;
55220;SDS011;41089;51.448;6.604;2023-06-24T23:17:58;6.47;;;5.78;;
55220;SDS011;41089;51.448;6.604;2023-06-24T23:23:59;9.55;;;5.57;;
55220;SDS011;41089;51.448;6.604;2023-06-24T23:30:00;6.32;;;5.72;;
55220;SDS011;41089;51.448;6.604;2023-06-24T23:36:04;9.35;;;5.93;;
55220;SDS011;41089;51.448;6.604;2023-06-24T23:42:05;10.75;;;6.25;;
55220;SDS011;41089;51.448;6.604;2023-06-24T23:48:06;8.23;;;7.05;;
55220;SDS011;41089;51.448;6.604;2023-06-24T23:54:07;9.03;;;6.97;;
